Latest Weather Observations for Rutherglen

IDV60801

Issued at 9:22 pm EDT Thursday 21 November 2019 (issued every 10 minutes, with the page automatically refreshed every 10 minutes)

About weather observations | Map of weather stations | Latest weather observations for VIC | Other Formats
Station Details ID: 082039 Name: RUTHERGLEN RESEARCH Lat: -36.10 Lon: 146.51 Height: 175.0 m
Data from the previous 72 hours. | See also: Recent months at Rutherglen
Date/Time
EDT
Temp
°C
App
Temp
°C
Dew
Point
°C
Rel
Hum
%
Delta-T
°C
Wind Press
QNH
hPa
Press
MSL
hPa
Rain since
9am
mm
Dir  Spd
km/h
Gust
km/h
Spd
kts
Gust
kts
21/09:00pm 30.9 26.5 4.6 19 13.8 WSW 17 22 9 12 - - 0.0
21/08:30pm 32.1 27.2 4.0 17 14.7 W 19 30 10 16 - - 0.0
21/08:00pm 33.4 27.8 3.3 15 15.6 WSW 22 30 12 16 - - 0.0
21/07:42pm 34.7 27.9 3.3 14 16.4 W 28 43 15 23 - - 0.0
21/07:30pm 35.1 30.3 2.6 13 16.9 W 17 24 9 13 - - 0.0
21/07:00pm 37.6 34.0 0.8 10 18.8 NNW 9 17 5 9 - - 0.0
21/06:30pm 38.1 33.6 -0.3 9 19.4 NNW 13 28 7 15 - - 0.0
21/06:00pm 39.2 32.7 0.6 9 19.9 NNW 24 41 13 22 - - 0.0
21/05:38pm 39.6 32.4 0.9 9 20.1 NW 28 46 15 25 - - 0.0
21/05:30pm 39.8 34.4 1.0 9 20.2 NNW 19 37 10 20 - - 0.0
21/05:00pm 39.3 32.1 0.6 9 19.9 NW 28 56 15 30 - - 0.0
21/04:41pm 39.3 32.1 0.6 9 19.9 NW 28 48 15 26 - - 0.0
21/04:30pm 40.2 35.2 1.3 9 20.4 NNW 17 35 9 19 - - 0.0
21/04:00pm 39.7 34.9 2.4 10 19.8 N 17 28 9 15 - - 0.0
21/03:30pm 39.4 33.6 2.2 10 19.7 NNW 22 39 12 21 - - 0.0
21/03:00pm 40.9 33.1 1.8 9 20.7 NNW 32 59 17 32 - - 0.0
21/02:48pm 40.4 33.3 1.4 9 20.5 N 28 50 15 27 - - 0.0
21/02:30pm 40.7 34.5 4.5 11 19.9 N 26 44 14 24 - - 0.0
21/02:00pm 39.7 33.3 5.0 12 19.2 NNE 28 48 15 26 - - 0.0
21/01:36pm 39.4 32.9 4.7 12 19.0 NNE 28 48 15 26 - - 0.0
21/01:30pm 39.8 34.1 5.1 12 19.2 N 24 48 13 26 - - 0.0
21/01:00pm 38.9 33.1 4.4 12 18.8 N 24 43 13 23 - - 0.0
21/12:30pm 37.9 32.2 6.8 15 17.5 NNE 26 43 14 23 - - 0.0
21/12:00pm 36.0 31.4 8.0 18 15.9 NNE 22 37 12 20 - - 0.0
21/11:30am 34.8 29.7 7.8 19 15.2 NNE 24 43 13 23 - - 0.0
21/11:00am 34.4 30.2 8.2 20 14.8 NNE 20 33 11 18 - - 0.0
21/10:30am 33.1 28.8 7.9 21 14.1 NNE 20 32 11 17 - - 0.0
21/10:00am 31.7 27.4 8.0 23 13.2 NNE 20 33 11 18 - - 0.0
21/09:30am 31.4 28.1 9.6 26 12.4 NE 17 28 9 15 - - 0.0
21/09:00am 28.7 24.9 8.9 29 11.0 NE 19 30 10 16 - - 0.0
21/08:30am 27.9 23.9 8.2 29 10.8 NE 19 30 10 16 - - 0.0
21/08:00am 26.8 22.1 7.8 30 10.3 ENE 22 32 12 17 - - 0.0
21/07:30am 25.7 21.5 7.3 31 9.8 ENE 19 28 10 15 - - 0.0
21/07:00am 24.5 20.0 6.3 31 9.4 ENE 19 28 10 15 - - 0.0
21/06:30am 23.7 18.9 5.6 31 9.2 ENE 20 30 11 16 - - 0.0
21/06:00am 23.4 18.5 4.9 30 9.3 ENE 20 30 11 16 - - 0.0
21/05:30am 23.3 18.3 4.8 30 9.3 ENE 20 30 11 16 - - 0.0
21/05:00am 23.4 17.6 4.4 29 9.5 E 24 30 13 16 - - 0.0
21/04:30am 23.2 17.7 4.2 29 9.4 ENE 22 30 12 16 - - 0.0
21/04:00am 23.2 18.1 4.2 29 9.4 E 20 26 11 14 - - 0.0
21/03:30am 23.7 18.2 4.1 28 9.7 E 22 30 12 16 - - 0.0
21/03:00am 23.9 18.7 3.8 27 9.9 ENE 20 26 11 14 - - 0.0
21/02:30am 23.8 18.8 3.7 27 9.9 ENE 19 26 10 14 - - 0.0
21/02:00am 23.8 18.8 3.7 27 9.9 E 19 24 10 13 - - 0.0
21/01:30am 23.6 19.0 3.5 27 9.9 ENE 17 26 9 14 - - 0.0
21/01:00am 20.3 16.3 4.8 36 7.6 ENE 15 19 8 10 - - 0.0
21/12:30am 15.6 12.9 5.5 51 4.9 E 9 13 5 7 - - 0.0
21/12:00am 15.2 12.5 5.7 53 4.6 ESE 9 9 5 5 - - 0.0
 
Date/Time
EDT
Temp
°C
App
Temp
°C
Dew
Point
°C
Rel
Hum
%
Delta-T
°C
Wind Press
QNH
hPa
Press
MSL
hPa
Rain since
9am
mm
Dir  Spd
km/h
Gust
km/h
Spd
kts
Gust
kts
20/11:30pm 15.4 13.1 5.6 52 4.7 E 7 7 4 4 - - 0.0
20/11:00pm 16.9 14.5 5.2 46 5.7 ESE 7 7 4 4 - - 0.0
20/10:30pm 16.8 14.5 4.8 45 5.7 E 6 7 3 4 - - 0.0
20/10:00pm 16.8 14.4 5.4 47 5.5 ENE 7 9 4 5 - - 0.0
20/09:30pm 18.6 16.1 4.0 38 7.0 ENE 6 7 3 4 - - 0.0
20/09:00pm 19.7 17.1 4.2 36 7.5 E 7 7 4 4 - - 0.0
20/08:30pm 20.8 17.9 4.4 34 8.0 E 9 11 5 6 - - 0.0
20/08:19pm 21.7 18.8 4.7 33 8.4 E 9 11 5 6 - - 0.0
20/08:00pm 26.7 23.7 1.9 20 12.1 E 7 9 4 5 - - 0.0
20/07:30pm 29.2 26.2 1.7 17 13.6 E 7 9 4 5 - - 0.0
20/07:00pm 31.8 28.3 -1.1 12 15.7 E 7 11 4 6 - - 0.0
20/06:30pm 33.5 28.9 -3.7 9 17.2 ESE 11 15 6 8 - - 0.0
20/06:00pm 34.3 30.2 -3.1 9 17.6 ENE 9 17 5 9 - - 0.0
20/05:30pm 34.3 30.2 -3.1 9 17.6 ENE 9 15 5 8 - - 0.0
20/05:00pm 34.5 30.0 -2.9 9 17.7 ESE 11 19 6 10 - - 0.0
20/04:30pm 34.3 30.2 -3.1 9 17.6 NW 9 17 5 9 - - 0.0
20/04:00pm 34.6 30.9 -2.9 9 17.8 WNW 7 17 4 9 - - 0.0
20/03:30pm 33.6 29.4 -3.6 9 17.3 SW 9 13 5 7 - - 0.0
20/03:00pm 33.0 29.0 -2.6 10 16.7 E 9 15 5 8 - - 0.0
20/02:30pm 32.9 28.5 -2.7 10 16.7 ESE 11 17 6 9 - - 0.0
20/02:00pm 32.1 28.5 -3.3 10 16.3 SSW 6 11 3 6 - - 0.0
20/01:30pm 31.1 27.3 -4.1 10 15.9 SW 7 15 4 8 - - 0.0
20/01:00pm 31.0 27.1 -1.7 12 15.4 E 9 17 5 9 - - 0.0
20/12:30pm 30.1 26.7 -0.3 14 14.6 ESE 7 15 4 8 - - 0.0
20/12:00pm 29.1 25.5 0.7 16 13.7 ENE 9 24 5 13 - - 0.0
20/11:30am 28.2 23.7 2.4 19 12.8 NE 15 20 8 11 - - 0.0
20/11:00am 27.6 23.7 3.3 21 12.2 ENE 13 20 7 11 - - 0.0
20/10:30am 26.2 22.1 4.6 25 11.0 ENE 15 20 8 11 - - 0.0
20/10:00am 25.7 21.5 3.6 24 11.0 ENE 15 24 8 13 - - 0.0
20/09:30am 24.2 20.4 4.0 27 10.0 NE 13 20 7 11 - - 0.0
20/09:00am 22.3 19.9 5.3 33 8.5 ENE 7 11 4 6 - - 0.0
20/08:30am 19.0 18.1 6.2 43 6.4 CALM 0 2 0 1 - - 0.0
20/08:00am 15.8 15.0 6.5 54 4.6 CALM 0 0 0 0 - - 0.0
20/07:30am 13.3 12.3 5.7 60 3.6 CALM 0 0 0 0 - - 0.0
20/07:00am 9.0 7.3 6.1 82 1.3 W 4 7 2 4 - - 0.0
20/06:30am 6.2 4.8 3.5 83 1.1 CALM 0 0 0 0 - - 0.0
20/06:00am 4.4 2.9 2.8 89 0.7 CALM 0 0 0 0 - - 0.0
20/05:30am 4.6 3.0 2.5 86 0.9 CALM 0 0 0 0 - - 0.0
20/05:00am 5.1 3.6 2.8 85 0.9 CALM 0 0 0 0 - - 0.0
20/04:30am 5.8 4.4 3.5 85 1.0 CALM 0 0 0 0 - - 0.0
20/04:00am 6.0 3.6 4.3 89 0.7 E 6 7 3 4 - - 0.0
20/03:30am 5.7 3.1 3.4 85 1.0 ESE 6 7 3 4 - - 0.0
20/03:00am 7.0 5.6 3.8 80 1.4 CALM 0 0 0 0 - - 0.0
20/02:30am 8.5 6.2 4.9 78 1.6 W 6 7 3 4 - - 0.0
20/02:00am 8.9 6.5 5.3 78 1.6 W 7 7 4 4 - - 0.0
20/01:30am 9.9 7.5 5.1 72 2.2 WNW 7 9 4 5 - - 0.0
20/01:00am 10.4 9.2 4.5 67 2.7 CALM 0 0 0 0 - - 0.0
20/12:30am 11.2 9.7 5.1 66 2.8 WSW 2 6 1 3 - - 0.0
20/12:00am 12.5 11.7 6.3 66 3.0 CALM 0 0 0 0 - - 0.0
 
Date/Time
EDT
Temp
°C
App
Temp
°C
Dew
Point
°C
Rel
Hum
%
Delta-T
°C
Wind Press
QNH
hPa
Press
MSL
hPa
Rain since
9am
mm
Dir  Spd
km/h
Gust
km/h
Spd
kts
Gust
kts
19/11:30pm 12.3 11.2 5.2 62 3.3 CALM 0 0 0 0 - - 0.0
19/11:00pm 14.5 12.2 5.0 53 4.5 W 6 7 3 4 - - 0.0
19/10:30pm 16.0 15.0 5.6 50 5.0 CALM 0 0 0 0 - - 0.0
19/10:00pm 17.0 15.9 5.3 46 5.7 CALM 0 0 0 0 - - 0.0
19/09:30pm 18.6 17.5 5.1 41 6.6 CALM 0 0 0 0 - - 0.0
19/09:00pm 20.7 18.3 5.1 36 7.7 S 7 9 4 5 - - 0.0
19/08:30pm 21.9 19.4 4.5 32 8.6 SW 7 9 4 5 - - 0.0
19/08:00pm 24.7 21.6 5.5 29 9.8 SSW 11 15 6 8 - - 0.0
19/07:30pm 27.7 23.2 4.1 22 12.0 SW 17 30 9 16 - - 0.0
19/07:00pm 29.0 24.2 4.5 21 12.7 SW 19 28 10 15 - - 0.0
19/06:30pm 29.6 24.5 4.3 20 13.1 SSW 20 32 11 17 - - 0.0
19/06:00pm 29.8 24.6 3.7 19 13.4 SSW 20 30 11 16 - - 0.0
19/05:30pm 31.3 26.2 4.2 18 14.1 SW 20 32 11 17 - - 0.0
19/05:00pm 31.7 25.8 3.7 17 14.5 W 24 39 13 21 - - 0.0
19/04:30pm 32.2 26.0 4.1 17 14.7 WSW 26 39 14 21 - - 0.0
19/04:00pm 32.3 25.5 3.3 16 15.0 WSW 28 44 15 24 - - 0.0
19/03:30pm 32.1 25.7 3.1 16 14.9 WSW 26 39 14 21 - - 0.0
19/03:00pm 32.5 26.4 2.5 15 15.3 W 24 39 13 21 - - 0.0
19/02:30pm 32.5 26.6 1.6 14 15.5 WSW 22 35 12 19 - - 0.0
19/02:00pm 32.1 25.2 0.2 13 15.6 W 26 41 14 22 - - 0.0
19/01:30pm 31.7 25.4 -1.2 12 15.7 W 22 35 12 19 - - 0.0
19/01:00pm 30.3 24.6 0.8 15 14.4 WNW 20 30 11 16 - - 0.0
19/12:30pm 29.9 24.9 1.4 16 14.0 W 17 28 9 15 - - 0.0
19/12:00pm 28.6 23.6 1.2 17 13.3 WSW 17 28 9 15 - - 0.0
19/11:30am 28.7 24.6 2.1 18 13.2 NW 13 24 7 13 - - 0.0
19/11:00am 27.2 24.0 3.0 21 12.0 W 9 15 5 8 - - 0.0
19/10:30am 25.9 22.6 2.6 22 11.4 N 9 15 5 8 - - 0.0
19/10:00am 25.4 22.4 4.0 25 10.7 NNE 9 17 5 9 - - 0.0
19/09:30am 24.6 21.2 3.8 26 10.3 E 11 17 6 9 - - 0.0
19/09:00am 22.8 19.0 3.9 29 9.3 ENE 13 17 7 9 - - 0.0
19/08:30am 21.8 17.9 3.5 30 8.9 ENE 13 17 7 9 - - 0.0
19/08:00am 20.5 17.0 5.3 37 7.5 E 13 17 7 9 - - 0.0
19/07:30am 16.6 15.1 8.3 58 4.3 ESE 6 7 3 4 - - 0.0
19/07:00am 11.8 10.8 7.3 74 2.2 ESE 2 7 1 4 - - 0.0
19/06:30am 7.9 6.4 4.8 81 1.4 ESE 2 7 1 4 - - 0.0
19/06:00am 7.3 5.6 3.9 79 1.5 E 2 7 1 4 - - 0.0
19/05:30am 7.9 5.5 4.1 77 1.7 S 6 9 3 5 - - 0.0
19/05:00am 8.4 5.9 4.6 77 1.7 ENE 7 15 4 8 - - 0.0
19/04:30am 7.5 5.1 4.5 81 1.3 E 6 7 3 4 - - 0.0
19/04:00am 7.9 6.0 4.7 80 1.4 SE 4 9 2 5 - - 0.0
19/03:30am 8.9 6.6 4.7 75 1.9 ESE 6 9 3 5 - - 0.0
19/03:00am 8.8 6.5 5.0 77 1.7 ESE 6 9 3 5 - - 0.0
19/02:30am 8.9 7.0 5.1 77 1.7 SE 4 7 2 4 - - 0.0
19/02:00am 9.6 7.4 5.2 74 2.0 E 6 7 3 4 - - 0.0
19/01:30am 9.3 7.4 5.1 75 1.9 E 4 6 2 3 - - 0.0
19/01:00am 9.4 7.2 5.4 76 1.8 E 6 6 3 3 - - 0.0
19/12:30am 10.5 8.2 5.5 71 2.3 ESE 7 7 4 4 - - 0.0
19/12:00am 10.2 7.7 5.0 70 2.4 E 7 9 4 5 - - 0.0
 
Date/Time
EDT
Temp
°C
App
Temp
°C
Dew
Point
°C
Rel
Hum
%
Delta-T
°C
Wind Press
QNH
hPa
Press
MSL
hPa
Rain since
9am
mm
Dir  Spd
km/h
Gust
km/h
Spd
kts
Gust
kts
18/11:30pm 10.6 9.5 4.9 68 2.6 CALM 0 0 0 0 - - 0.0
18/11:00pm 11.4 10.2 4.8 64 3.0 CALM 0 0 0 0 - - 0.0
18/10:30pm 11.6 10.4 4.8 63 3.1 CALM 0 0 0 0 - - 0.0
18/10:00pm 12.5 11.4 5.2 61 3.4 CALM 0 0 0 0 - - 0.0
18/09:30pm 13.4 12.3 5.1 57 3.9 CALM 0 0 0 0 - - 0.0

Other formats

Comma delimited format used in spreadsheet applications
http://www.bom.gov.au/fwo/IDV60801/IDV60801.95837.axf

JavaScript Object Notation format (JSON) in row-major order
http://www.bom.gov.au/fwo/IDV60801/IDV60801.95837.json

Data quality

Most of these data are generated automatically and are frequently updated. Quality checks on data are not normally performed. It is possible for incorrect values to appear. Refer to information at About Latest Weather Observations and please check the disclaimer before using these data.